createdAt,value
2019-01-25T00:02:01.635Z,-2.87
2019-01-25T00:04:33.079Z,-2.88
2019-01-25T00:07:04.514Z,-2.70
2019-01-25T00:09:35.961Z,-2.92
2019-01-25T00:12:07.452Z,-2.73
2019-01-25T00:14:38.897Z,-2.87
2019-01-25T00:17:10.414Z,-2.76
2019-01-25T00:19:41.869Z,-3.11
2019-01-25T00:22:13.332Z,-2.87
2019-01-25T00:24:44.771Z,-2.89
2019-01-25T00:27:16.504Z,-2.78
2019-01-25T00:29:47.934Z,-3.19
2019-01-25T00:32:21.527Z,-2.81
2019-01-25T00:34:52.962Z,-3.09
2019-01-25T00:37:24.418Z,-3.02
2019-01-25T00:39:55.873Z,-3.02
2019-01-25T00:42:27.403Z,-3.26
2019-01-25T00:44:58.840Z,-3.13
2019-01-25T00:47:30.293Z,-2.97
2019-01-25T00:50:01.723Z,-2.97
2019-01-25T00:52:33.191Z,-3.06
2019-01-25T00:55:04.764Z,-2.91
2019-01-25T00:57:36.249Z,-2.94
2019-01-25T01:00:13.957Z,-2.95
2019-01-25T01:02:45.425Z,-2.89
2019-01-25T01:05:17.161Z,-2.77
2019-01-25T01:07:51.030Z,-2.96
2019-01-25T01:10:23.166Z,-3.06
2019-01-25T01:12:54.938Z,-2.96
2019-01-25T01:15:26.367Z,-3.13
2019-01-25T01:17:57.819Z,-2.98
2019-01-25T01:20:29.230Z,-2.93
2019-01-25T01:23:01.602Z,-2.59
2019-01-25T01:25:33.025Z,-2.88
2019-01-25T01:28:04.484Z,-2.90
2019-01-25T01:30:35.907Z,-2.89
2019-01-25T01:33:07.375Z,-2.79
2019-01-25T01:35:38.741Z,-2.82
2019-01-25T01:38:10.205Z,-2.74
2019-01-25T01:40:41.630Z,-2.90
2019-01-25T01:43:14.265Z,-2.82
2019-01-25T01:45:45.847Z,-2.77
2019-01-25T01:48:17.284Z,-2.83
2019-01-25T01:50:49.913Z,-2.79
2019-01-25T01:53:21.371Z,-2.83
2019-01-25T01:55:52.783Z,-2.84
2019-01-25T01:58:24.281Z,-2.67
2019-01-25T02:00:55.766Z,-2.93
2019-01-25T02:03:29.009Z,-3.00
2019-01-25T02:06:00.417Z,-2.88
2019-01-25T02:08:31.880Z,-2.91
2019-01-25T02:11:03.306Z,-2.94
2019-01-25T02:13:34.765Z,-2.84
2019-01-25T02:16:08.933Z,-3.05
2019-01-25T02:18:40.414Z,-2.92
2019-01-25T02:21:11.837Z,-2.99
2019-01-25T02:23:43.299Z,-2.87
2019-01-25T02:26:14.771Z,-2.83
2019-01-25T02:28:46.291Z,-2.85
2019-01-25T02:31:17.713Z,-2.95
2019-01-25T02:33:49.192Z,-3.11
2019-01-25T02:36:21.893Z,-3.07
2019-01-25T02:38:53.329Z,-2.95
2019-01-25T02:41:24.762Z,-3.12
2019-01-25T02:43:56.188Z,-3.09
2019-01-25T02:46:27.586Z,-3.22
2019-01-25T02:49:01.692Z,-2.95
2019-01-25T02:51:33.140Z,-3.19
2019-01-25T02:54:04.656Z,-3.01
2019-01-25T02:56:36.104Z,-2.91
2019-01-25T02:59:07.575Z,-3.07
2019-01-25T03:01:38.999Z,-3.15
2019-01-25T03:04:10.456Z,-3.36
2019-01-25T03:06:41.898Z,-3.32
2019-01-25T03:09:13.361Z,-3.12
2019-01-25T03:11:46.017Z,-3.24
2019-01-25T03:14:17.497Z,-3.08
2019-01-25T03:16:51.839Z,-3.22
2019-01-25T03:19:24.902Z,-3.15
2019-01-25T03:21:56.344Z,-3.20
2019-01-25T03:24:27.738Z,-3.29
2019-01-25T03:26:59.148Z,-3.09
2019-01-25T03:29:32.088Z,-3.28
2019-01-25T03:32:05.600Z,-3.14
2019-01-25T03:34:40.252Z,-3.12
2019-01-25T03:37:11.681Z,-3.08
2019-01-25T03:39:47.711Z,-2.98
2019-01-25T03:42:19.129Z,-3.21
2019-01-25T03:44:50.665Z,-3.21
2019-01-25T03:47:22.142Z,-3.24
2019-01-25T03:49:53.605Z,-3.20
2019-01-25T03:52:25.022Z,-3.09
2019-01-25T03:54:56.495Z,-3.37
2019-01-25T03:57:27.978Z,-3.40
2019-01-25T03:59:59.344Z,-3.35
2019-01-25T04:02:30.754Z,-3.34
2019-01-25T04:05:02.215Z,-3.35
2019-01-25T04:07:33.707Z,-3.26
2019-01-25T04:10:06.136Z,-3.15
2019-01-25T04:12:37.566Z,-3.11
2019-01-25T04:15:12.000Z,-3.37
2019-01-25T04:17:43.581Z,-3.18
2019-01-25T04:20:16.286Z,-3.07
2019-01-25T04:22:47.826Z,-3.18
2019-01-25T04:25:21.340Z,-3.07
2019-01-25T04:27:52.978Z,-3.32
2019-01-25T04:30:35.062Z,-3.45
2019-01-25T04:33:06.606Z,-3.41
2019-01-25T04:35:38.048Z,-3.27
2019-01-25T04:38:10.829Z,-3.25
2019-01-25T04:40:42.328Z,-3.04
2019-01-25T04:43:13.762Z,-3.06
2019-01-25T04:45:45.209Z,-3.02
2019-01-25T04:48:17.194Z,-3.15
2019-01-25T04:50:48.647Z,-3.09
2019-01-25T04:53:20.083Z,-3.10
2019-01-25T04:55:51.482Z,-3.00
2019-01-25T04:58:22.911Z,-2.88
2019-01-25T05:00:54.383Z,-3.06
2019-01-25T05:03:25.828Z,-2.91
2019-01-25T05:05:57.271Z,-2.91
2019-01-25T05:08:28.738Z,-2.89
2019-01-25T05:11:00.242Z,-2.80
2019-01-25T05:13:31.820Z,-3.10
2019-01-25T05:16:09.682Z,-2.93
2019-01-25T05:18:44.173Z,-3.04
2019-01-25T05:21:24.559Z,-3.22
2019-01-25T05:23:56.012Z,-3.14
2019-01-25T05:26:27.465Z,-3.30
2019-01-25T05:28:58.810Z,-3.23
2019-01-25T05:31:30.777Z,-3.05
2019-01-25T05:34:02.219Z,-3.34
2019-01-25T05:36:33.680Z,-3.16
2019-01-25T05:39:07.960Z,-3.02
2019-01-25T05:41:39.358Z,-3.16
2019-01-25T05:44:10.788Z,-3.05
2019-01-25T05:46:42.287Z,-3.17
2019-01-25T05:49:13.715Z,-3.03
2019-01-25T05:51:45.092Z,-3.25
2019-01-25T05:54:16.552Z,-3.33
2019-01-25T05:56:48.019Z,-3.19
2019-01-25T05:59:24.398Z,-3.19
2019-01-25T06:01:55.867Z,-3.36
2019-01-25T06:04:35.179Z,-3.23
2019-01-25T06:07:11.132Z,-3.32
2019-01-25T06:09:42.557Z,-3.42
2019-01-25T06:12:14.017Z,-3.08
2019-01-25T06:14:45.448Z,-3.13
2019-01-25T06:17:16.895Z,-3.10
2019-01-25T06:19:48.355Z,-3.06
2019-01-25T06:22:20.047Z,-3.50
2019-01-25T06:24:51.442Z,-3.06
2019-01-25T06:27:22.919Z,-2.99
2019-01-25T06:29:56.148Z,-3.01
2019-01-25T06:32:27.687Z,-3.07
2019-01-25T06:34:59.107Z,-2.87
2019-01-25T06:37:30.556Z,-3.03
2019-01-25T06:40:02.022Z,-3.00
2019-01-25T06:42:33.487Z,-2.93
2019-01-25T06:45:06.962Z,-3.24
2019-01-25T06:47:38.432Z,-2.96
2019-01-25T06:50:11.510Z,-3.05
2019-01-25T06:52:43.006Z,-3.23
2019-01-25T06:55:16.675Z,-3.40
2019-01-25T06:58:07.074Z,-3.28
2019-01-25T07:00:41.538Z,-3.23
2019-01-25T07:03:13.962Z,-3.17
2019-01-25T07:05:45.394Z,-3.25
2019-01-25T07:08:18.628Z,-3.20
2019-01-25T07:10:50.140Z,-3.13
2019-01-25T07:13:21.510Z,-3.22
2019-01-25T07:15:52.967Z,-3.22
2019-01-25T07:18:25.412Z,-3.01
2019-01-25T07:20:56.853Z,-3.22
2019-01-25T07:23:28.324Z,-3.11
2019-01-25T07:25:59.759Z,-3.22
2019-01-25T07:28:31.232Z,-3.02
2019-01-25T07:31:02.654Z,-3.06
2019-01-25T07:33:34.126Z,-3.15
2019-01-25T07:36:06.021Z,-3.01
2019-01-25T07:38:37.487Z,-3.19
2019-01-25T07:41:08.886Z,-3.09
2019-01-25T07:43:40.352Z,-3.18
2019-01-25T07:46:11.804Z,-3.05
2019-01-25T07:48:44.486Z,-3.05
2019-01-25T07:51:15.969Z,-3.04
2019-01-25T07:53:47.330Z,-3.05
2019-01-25T07:56:18.800Z,-2.94
2019-01-25T07:58:52.683Z,-2.95
2019-01-25T08:01:24.174Z,-2.94
2019-01-25T08:03:55.641Z,-2.97
2019-01-25T08:06:27.060Z,-2.86
2019-01-25T08:08:58.537Z,-3.01
2019-01-25T08:11:30.088Z,-3.25
2019-01-25T08:14:01.616Z,-3.03
2019-01-25T08:16:33.024Z,-2.94
2019-01-25T08:19:04.478Z,-2.85
2019-01-25T08:21:36.219Z,-3.06
2019-01-25T08:24:07.687Z,-3.07
2019-01-25T08:26:39.421Z,-2.93
2019-01-25T08:29:10.890Z,-3.00
2019-01-25T08:31:42.350Z,-2.77
2019-01-25T08:34:14.102Z,-2.93
2019-01-25T08:36:45.587Z,-3.02
2019-01-25T08:39:17.054Z,-2.80
2019-01-25T08:41:48.573Z,-2.89
2019-01-25T08:44:20.158Z,-2.99
2019-01-25T08:46:52.572Z,-3.20
2019-01-25T08:49:25.185Z,-3.05
2019-01-25T08:51:56.720Z,-2.91
2019-01-25T08:54:30.386Z,-2.98
2019-01-25T08:57:01.890Z,-2.86
2019-01-25T08:59:33.396Z,-2.75
2019-01-25T09:02:05.630Z,-2.70
2019-01-25T09:04:37.108Z,-2.71
2019-01-25T09:07:08.518Z,-2.66
2019-01-25T09:09:39.983Z,-2.64
2019-01-25T09:12:11.512Z,-2.86
2019-01-25T09:14:42.953Z,-2.97
2019-01-25T09:17:15.942Z,-2.84
2019-01-25T09:19:47.588Z,-2.89
2019-01-25T09:22:19.029Z,-2.62
2019-01-25T09:24:50.501Z,-2.61
2019-01-25T09:27:21.967Z,-2.47
2019-01-25T09:29:53.506Z,-2.60
2019-01-25T09:32:24.955Z,-2.45
2019-01-25T09:34:56.501Z,-2.91
2019-01-25T09:37:30.986Z,-2.78
2019-01-25T09:40:02.524Z,-2.62
2019-01-25T09:42:34.183Z,-2.73
2019-01-25T09:45:06.996Z,-2.64
2019-01-25T09:47:38.529Z,-2.63
2019-01-25T09:50:13.553Z,-2.70
2019-01-25T09:52:45.016Z,-2.73
2019-01-25T09:55:19.608Z,-2.51
2019-01-25T09:57:52.527Z,-2.55
2019-01-25T10:00:50.258Z,-2.45
2019-01-25T10:03:23.889Z,-2.77
2019-01-25T10:05:55.360Z,-2.56
2019-01-25T10:08:26.876Z,-2.40
2019-01-25T10:10:58.322Z,-2.70
2019-01-25T10:13:29.796Z,-2.54
2019-01-25T10:16:01.238Z,-2.49
2019-01-25T10:18:32.835Z,-2.22
2019-01-25T10:21:04.368Z,-2.40
2019-01-25T10:23:39.262Z,-2.24
2019-01-25T10:26:11.009Z,-2.31
2019-01-25T10:28:42.488Z,-2.37
2019-01-25T10:31:14.929Z,-2.38
2019-01-25T10:33:48.453Z,-2.50
2019-01-25T10:36:19.734Z,-2.84
2019-01-25T10:38:51.185Z,-2.59
2019-01-25T10:41:23.173Z,-2.75
2019-01-25T10:43:54.748Z,-2.38
2019-01-25T10:46:26.216Z,-2.13
2019-01-25T10:48:57.653Z,-2.13
2019-01-25T10:51:32.168Z,-2.53
2019-01-25T10:54:03.610Z,-2.12
2019-01-25T10:56:36.572Z,-2.19
2019-01-25T10:59:07.997Z,-2.07
2019-01-25T11:01:39.489Z,-1.93
2019-01-25T11:04:11.690Z,-1.92
2019-01-25T11:06:43.324Z,-2.03
2019-01-25T11:09:14.741Z,-1.64
2019-01-25T11:11:46.294Z,-1.71
2019-01-25T11:14:19.225Z,-1.86
2019-01-25T11:16:50.729Z,-1.97
2019-01-25T11:19:24.468Z,-1.98
2019-01-25T11:21:55.969Z,-1.83
2019-01-25T11:24:27.434Z,-1.76
2019-01-25T11:27:00.446Z,-1.71
2019-01-25T11:29:31.885Z,-1.56
2019-01-25T11:32:03.324Z,-1.54
2019-01-25T11:34:34.801Z,-1.31
2019-01-25T11:37:06.280Z,-1.43
2019-01-25T11:39:37.771Z,-1.75
2019-01-25T11:42:09.223Z,-1.58
2019-01-25T11:44:40.720Z,-1.86
2019-01-25T11:47:12.171Z,-1.87
2019-01-25T11:49:43.632Z,-2.03
2019-01-25T11:52:15.170Z,-1.78
2019-01-25T11:54:46.626Z,-1.49
2019-01-25T11:57:18.302Z,-1.63
2019-01-25T11:59:52.479Z,-1.50
2019-01-25T12:02:25.886Z,-1.44
2019-01-25T12:04:58.827Z,-1.61
2019-01-25T12:07:30.312Z,-1.58
2019-01-25T12:10:02.330Z,-1.34
2019-01-25T12:12:33.819Z,-1.37
2019-01-25T12:15:07.695Z,-1.76
2019-01-25T12:17:39.265Z,-1.78
2019-01-25T12:20:17.385Z,-1.60
2019-01-25T12:22:48.832Z,-1.45
2019-01-25T12:25:20.383Z,-1.61
2019-01-25T12:27:51.848Z,-1.45
2019-01-25T12:30:38.240Z,-1.24
2019-01-25T12:33:10.894Z,-1.29
2019-01-25T12:35:45.392Z,-1.65
2019-01-25T12:38:16.863Z,-1.91
2019-01-25T12:40:48.322Z,-1.71
2019-01-25T12:43:23.967Z,-1.66
2019-01-25T12:45:52.996Z,-1.61
2019-01-25T12:48:24.459Z,-1.53
2019-01-25T12:51:52.400Z,-1.71
2019-01-25T12:54:23.949Z,-1.48
2019-01-25T12:56:55.529Z,-1.81
2019-01-25T12:59:26.932Z,-1.64
2019-01-25T13:01:59.351Z,-1.37
2019-01-25T13:04:30.867Z,-1.51
2019-01-25T13:07:02.368Z,-1.85
2019-01-25T13:09:33.956Z,-1.64
2019-01-25T13:12:05.618Z,-1.49
2019-01-25T13:14:38.075Z,-1.69
2019-01-25T13:17:09.614Z,-1.69
2019-01-25T13:19:41.076Z,-1.27
2019-01-25T13:22:12.604Z,-1.25
2019-01-25T13:24:44.020Z,-1.35
2019-01-25T13:27:18.432Z,-1.40
2019-01-25T13:29:51.151Z,-1.59
2019-01-25T13:32:25.792Z,-1.24
2019-01-25T13:34:57.252Z,-1.30
2019-01-25T13:37:31.506Z,-1.14
2019-01-25T13:40:01.986Z,-1.20
2019-01-25T13:42:33.906Z,-1.10
2019-01-25T13:45:05.783Z,-1.06
2019-01-25T13:47:37.332Z,-0.94
2019-01-25T13:50:12.137Z,-1.00
2019-01-25T13:52:43.571Z,-1.14
2019-01-25T13:55:16.119Z,-1.34
2019-01-25T13:57:48.647Z,-1.18
2019-01-25T14:00:31.771Z,-1.01
2019-01-25T14:03:03.411Z,-1.02
2019-01-25T14:05:34.897Z,-1.28
2019-01-25T14:08:06.472Z,-1.13
2019-01-25T14:10:38.477Z,-0.92
2019-01-25T14:13:11.560Z,-1.31
2019-01-25T14:15:43.134Z,-1.41
2019-01-25T14:18:14.596Z,-1.19
2019-01-25T14:20:46.060Z,-1.27
2019-01-25T14:23:17.489Z,-1.26
2019-01-25T14:25:48.996Z,-1.35
2019-01-25T14:28:20.623Z,-1.18
2019-01-25T14:30:52.157Z,-1.23
2019-01-25T14:33:23.607Z,-1.33
2019-01-25T14:35:55.085Z,-1.29
2019-01-25T14:38:26.599Z,-1.60
2019-01-25T14:40:58.095Z,-1.48
2019-01-25T14:43:29.639Z,-1.73
2019-01-25T14:46:01.147Z,-1.87
2019-01-25T14:48:32.698Z,-1.63
2019-01-25T14:51:04.178Z,-1.70
2019-01-25T14:53:35.639Z,-1.80
2019-01-25T14:56:07.189Z,-1.79
2019-01-25T14:58:38.709Z,-1.94
2019-01-25T15:01:10.290Z,-2.02
2019-01-25T15:03:41.783Z,-1.60
2019-01-25T15:06:14.667Z,-1.66
2019-01-25T15:08:46.145Z,-1.57
2019-01-25T15:11:17.605Z,-1.69
2019-01-25T15:13:50.343Z,-1.72
2019-01-25T15:16:21.800Z,-1.79
2019-01-25T15:18:53.228Z,-1.96
2019-01-25T15:21:24.711Z,-1.86
2019-01-25T15:23:56.163Z,-1.83
2019-01-25T15:26:29.314Z,-1.69
2019-01-25T15:29:00.819Z,-1.62
2019-01-25T15:31:33.287Z,-1.65
2019-01-25T15:34:06.478Z,-1.75
2019-01-25T15:36:37.934Z,-1.51
2019-01-25T15:39:11.263Z,-1.48
2019-01-25T15:41:42.747Z,-1.67
2019-01-25T15:44:14.195Z,-1.59
2019-01-25T15:46:47.339Z,-1.60
2019-01-25T15:49:18.807Z,-1.31
2019-01-25T15:51:50.297Z,-1.31
2019-01-25T15:54:21.731Z,-1.49
2019-01-25T15:56:53.251Z,-1.31
2019-01-25T15:59:24.715Z,-1.39
2019-01-25T16:01:56.199Z,-1.21
2019-01-25T16:04:34.618Z,-1.30
2019-01-25T16:07:00.938Z,-1.40
2019-01-25T16:09:32.374Z,-1.52
2019-01-25T16:12:03.865Z,-1.28
2019-01-25T16:14:35.355Z,-1.36
2019-01-25T16:17:06.785Z,-1.39
2019-01-25T16:19:38.211Z,-1.15
2019-01-25T16:22:10.999Z,-1.32
2019-01-25T16:24:42.398Z,-1.30
2019-01-25T16:27:13.866Z,-1.29
2019-01-25T16:29:45.361Z,-1.81
2019-01-25T16:32:16.799Z,-1.53
2019-01-25T16:34:49.202Z,-1.63
2019-01-25T16:37:20.678Z,-1.61
2019-01-25T16:39:52.187Z,-1.60
2019-01-25T16:42:23.659Z,-1.67
2019-01-25T16:44:55.127Z,-1.81
2019-01-25T16:47:26.815Z,-1.73
2019-01-25T16:49:58.377Z,-1.78
2019-01-25T16:52:29.916Z,-1.67
2019-01-25T16:55:01.364Z,-1.68
2019-01-25T16:57:35.199Z,-1.62
2019-01-25T17:00:16.270Z,-1.47
2019-01-25T17:02:47.769Z,-1.62
2019-01-25T17:05:19.889Z,-1.63
2019-01-25T17:07:51.376Z,-1.81
2019-01-25T17:10:22.825Z,-2.13
2019-01-25T17:12:55.287Z,-2.01
2019-01-25T17:15:26.850Z,-2.13
2019-01-25T17:17:59.301Z,-2.03
2019-01-25T17:20:33.109Z,-1.97
2019-01-25T17:23:04.986Z,-2.17
2019-01-25T17:25:36.470Z,-2.24
2019-01-25T17:28:10.062Z,-2.26
2019-01-25T17:30:42.909Z,-2.12
2019-01-25T17:33:16.579Z,-2.35
2019-01-25T17:35:48.157Z,-2.33
2019-01-25T17:38:19.593Z,-2.30
2019-01-25T17:40:51.143Z,-2.24
2019-01-25T17:43:22.593Z,-2.11
2019-01-25T17:45:54.016Z,-2.16
2019-01-25T17:48:25.615Z,-2.22
2019-01-25T17:50:57.095Z,-2.25
2019-01-25T17:53:28.737Z,-2.35
2019-01-25T17:56:00.213Z,-2.44
2019-01-25T17:58:32.004Z,-2.37
2019-01-25T18:01:03.641Z,-2.41
2019-01-25T18:03:36.202Z,-2.49
2019-01-25T18:06:09.892Z,-2.33
2019-01-25T18:08:41.418Z,-2.49
2019-01-25T18:11:14.762Z,-2.40
2019-01-25T18:13:48.527Z,-2.47
2019-01-25T18:16:20.055Z,-2.39
2019-01-25T18:18:51.652Z,-2.47
2019-01-25T18:21:23.078Z,-2.37
2019-01-25T18:23:56.277Z,-2.32
2019-01-25T18:26:28.055Z,-2.56
2019-01-25T18:29:29.809Z,-2.50
2019-01-25T18:32:01.249Z,-2.65
2019-01-25T18:34:34.325Z,-2.84
2019-01-25T18:37:06.035Z,-2.64
2019-01-25T18:39:37.541Z,-2.75
2019-01-25T18:42:09.072Z,-2.59
2019-01-25T18:44:40.624Z,-2.69
2019-01-25T18:47:12.091Z,-2.90
2019-01-25T18:49:44.941Z,-2.78
2019-01-25T18:52:17.975Z,-2.88
2019-01-25T18:54:50.663Z,-2.94
2019-01-25T18:57:22.105Z,-2.95
2019-01-25T18:59:53.568Z,-2.74
2019-01-25T19:02:25.011Z,-2.88
2019-01-25T19:04:58.477Z,-3.09
2019-01-25T19:07:29.739Z,-3.02
2019-01-25T19:10:01.238Z,-2.92
2019-01-25T19:12:32.901Z,-2.98
2019-01-25T19:15:05.543Z,-3.10
2019-01-25T19:17:37.291Z,-2.99
2019-01-25T19:20:11.724Z,-3.05
2019-01-25T19:22:43.317Z,-2.99
2019-01-25T19:25:16.754Z,-3.18
2019-01-25T19:27:51.012Z,-3.15
2019-01-25T19:30:32.210Z,-3.05
2019-01-25T19:33:05.469Z,-3.20
2019-01-25T19:35:37.043Z,-3.27
2019-01-25T19:38:10.279Z,-3.30
2019-01-25T19:40:44.079Z,-3.29
2019-01-25T19:43:15.674Z,-3.36
2019-01-25T19:45:47.281Z,-3.55
2019-01-25T19:48:20.643Z,-3.57
2019-01-25T19:50:53.431Z,-3.76
2019-01-25T19:53:24.980Z,-3.83
2019-01-25T19:55:56.380Z,-4.01
2019-01-25T19:58:27.898Z,-4.18
2019-01-25T20:00:59.433Z,-3.91
2019-01-25T20:03:30.976Z,-3.89
2019-01-25T20:06:02.680Z,-3.85
2019-01-25T20:08:34.212Z,-4.05
2019-01-25T20:11:05.778Z,-4.11
2019-01-25T20:13:37.494Z,-4.20
2019-01-25T20:16:09.950Z,-3.97
2019-01-25T20:18:42.430Z,-4.05
2019-01-25T20:21:13.931Z,-4.07
2019-01-25T20:23:45.467Z,-4.07
2019-01-25T20:26:16.951Z,-4.18
2019-01-25T20:28:48.450Z,-3.93
2019-01-25T20:31:19.996Z,-4.36
2019-01-25T20:33:51.511Z,-4.05
2019-01-25T20:36:23.110Z,-4.20
2019-01-25T20:38:54.622Z,-4.07
2019-01-25T20:41:26.110Z,-3.97
2019-01-25T20:44:01.795Z,-4.04
2019-01-25T20:46:33.854Z,-4.09
2019-01-25T20:49:05.526Z,-4.01
2019-01-25T20:51:36.978Z,-4.17
2019-01-25T20:54:08.454Z,-4.03
2019-01-25T20:56:40.118Z,-3.95
2019-01-25T20:59:11.560Z,-3.85
2019-01-25T21:01:44.998Z,-3.93
2019-01-25T21:04:16.920Z,-4.01
2019-01-25T21:06:48.394Z,-3.90
2019-01-25T21:09:19.797Z,-3.78
2019-01-25T21:11:51.287Z,-3.78
2019-01-25T21:14:22.725Z,-3.78
2019-01-25T21:16:54.195Z,-3.90
2019-01-25T21:19:25.626Z,-3.89
2019-01-25T21:21:57.994Z,-3.99
2019-01-25T21:24:29.433Z,-3.90
2019-01-25T21:27:00.821Z,-3.61
2019-01-25T21:29:34.991Z,-3.63
2019-01-25T21:32:06.464Z,-3.75
2019-01-25T21:34:37.967Z,-3.72
2019-01-25T21:37:09.413Z,-3.62
2019-01-25T21:39:42.090Z,-3.56
2019-01-25T21:42:13.581Z,-3.75
2019-01-25T21:44:44.999Z,-3.48
2019-01-25T21:47:17.659Z,-3.69
2019-01-25T21:49:49.097Z,-3.66
2019-01-25T21:52:20.555Z,-3.84
2019-01-25T21:54:52.019Z,-3.63
2019-01-25T21:57:23.520Z,-3.56
2019-01-25T21:59:56.071Z,-3.49
2019-01-25T22:02:30.615Z,-3.71
2019-01-25T22:05:02.061Z,-3.78
2019-01-25T22:07:36.022Z,-3.63
2019-01-25T22:10:12.937Z,-3.70
2019-01-25T22:12:44.608Z,-3.41
2019-01-25T22:15:18.998Z,-3.55
2019-01-25T22:17:50.766Z,-3.39
2019-01-25T22:20:28.044Z,-3.54
2019-01-25T22:22:59.472Z,-3.43
2019-01-25T22:25:32.227Z,-3.42
2019-01-25T22:28:04.656Z,-3.60
2019-01-25T22:30:36.156Z,-3.40
2019-01-25T22:33:07.693Z,-3.44
2019-01-25T22:35:39.143Z,-3.41
2019-01-25T22:38:12.354Z,-3.44
2019-01-25T22:40:43.801Z,-3.37
2019-01-25T22:43:15.279Z,-3.24
2019-01-25T22:45:46.724Z,-3.27
2019-01-25T22:48:18.172Z,-3.18
2019-01-25T22:50:49.616Z,-3.29
2019-01-25T22:53:21.116Z,-3.27
2019-01-25T22:55:52.567Z,-3.02
2019-01-25T22:58:24.025Z,-3.08
2019-01-25T23:01:29.482Z,-3.17
2019-01-25T23:05:12.364Z,-3.17
2019-01-25T23:07:43.870Z,-3.16
2019-01-25T23:10:23.017Z,-3.03
2019-01-25T23:12:58.300Z,-3.05
2019-01-25T23:15:29.776Z,-3.05
2019-01-25T23:18:01.200Z,-3.00
2019-01-25T23:20:34.283Z,-3.16
2019-01-25T23:23:05.734Z,-2.98
2019-01-25T23:25:37.202Z,-3.14
2019-01-25T23:28:11.770Z,-3.01
2019-01-25T23:30:43.160Z,-2.78
2019-01-25T23:33:14.612Z,-2.82
2019-01-25T23:35:46.174Z,-3.06
2019-01-25T23:38:18.917Z,-2.85
2019-01-25T23:40:50.363Z,-3.09
2019-01-25T23:43:21.793Z,-3.06
2019-01-25T23:45:53.231Z,-3.05
2019-01-25T23:48:24.680Z,-2.96
2019-01-25T23:50:56.148Z,-2.80
2019-01-25T23:53:29.205Z,-2.88
2019-01-25T23:56:00.631Z,-2.96
2019-01-25T23:58:32.105Z,-2.98
